Delano, CA

2:48 AM PDT on October 20, 2014 (GMT -0700)
KCAMCFAR2 | Change Station
CLOSE
Current Station
Personal Weather Station
Location: McFarland, CA
Elevation: 342 ft
Nearby Weather Stations

Elev 342 ft 35.69 °N, 119.23 °W | Updated 3 seconds ago

Clear
Clear
58.6 °F
Feels Like 58.6 °F
N
0.0
Wind Variable Wind from SSE
Gusts 0.0 mph

Today
High -- | Low -- °F
--% Chance of Precip.
Yesterday
High -- | Low -- °F
Precip. -- in
7:08 AM 6:14 PM
Waning Crescent, 12% visible
Pressure 29.88 in
Visibility 10.0 miles
Clouds Clear
Dew Point 49 °F
Humidity 70%
Rainfall 0.00 in
Snow Depth Not available.
UV 0 out of 12
Pollen 4.40 out of 12
Ozone Good
PM2.5 Moderate
Flu Activity Sporadic
METAR KPTV 200935Z 09004KT 10SM CLR 16/07 A2988 RMK AO1

More Conditions Fewer Conditions

Pressure 29.88 in
Visibility 10.0 miles
Clouds Clear
Dew Point 49 °F
Humidity 70%
Rainfall 0.00 in
Snow Depth Not available.
UV 0 out of 12
Pollen 4.40 out of 12
Ozone Good
PM2.5 Moderate
Flu Activity Sporadic
METAR KPTV 200935Z 09004KT 10SM CLR 16/07 A2988 RMK AO1

More Conditions Fewer Conditions

10-Day Weather Forecast

Almanac

Astronomy

Oct. 20, 2014 Rise Set
Actual Time 7:08 AM PDT 6:14 PM PDT
Civil Twilight 6:42 AM PDT 6:40 PM PDT
Nautical Twilight 6:12 AM PDT 7:10 PM PDT
Astronomical Twilight 5:42 AM PDT 7:40 PM PDT
Moon 4:06 AM PDT 4:35 PM PDT
Length of Visible Light 11h 58m
Length of Day
11h 06m
Waning Crescent, 12% of the Moon is Illuminated
Today
Waning Crescent
Oct 23
New
Oct 30
First Quarter
Nov 6
Full
Nov 14
Last Quarter

Today's Extremes

State Highs State Lows

Community

WunderPhotos

Upload Photos

1,763,325 photos uploaded!

Nearby

Air Quality

  Air Quality AQ Index Pollutant
Yesterday Moderate
OZONE
Yesterday Good
PM2.5
Current Moderate
PM2.5
Current Good
OZONE
Monday Moderate
PM10
Tuesday Good
OZONE
Wednesday Moderate
PM10
Thursday Moderate
PM10
Friday Moderate
PM10

Snow Depth

Station Depth Elevation
Leavitt Lake 1 in 9400 ft
Sonora Pass 0 in 8800 ft
Leavitt Meadows 1 in 7200 ft
Summit Meadow 1 in 9122 ft
Poison Flat 0 in 7900 ft

Earthquake Activity

City Distance Mag. Time & Date
Lone Pine, California 60 miles 2.6 5:26 AM PDT
2014-10-19
Dixon Lane-Meadow Creek, California 132 miles 2.5 5:32 PM PDT
2014-10-18
Soledad, California 117 miles 2.6 3:21 PM PDT
2014-10-18
Minimum magnitude displayed is 2.5.

Coastal Water Temperatures

Place Temperature
No Stations Reporting

Nearby Weather Stations